sensor_id;sensor_type;location;lat;lon;timestamp;P1;durP1;ratioP1;P2;durP2;ratioP2
72791;SDS011;60907;53.268;8.764;2022-12-18T00:01:00;24.25;;;10.88;;
72791;SDS011;60907;53.268;8.764;2022-12-18T00:03:30;30.23;;;10.82;;
72791;SDS011;60907;53.268;8.764;2022-12-18T00:05:57;24.15;;;10.48;;
72791;SDS011;60907;53.268;8.764;2022-12-18T00:08:22;24.67;;;10.17;;
72791;SDS011;60907;53.268;8.764;2022-12-18T00:10:48;27.38;;;10.02;;
72791;SDS011;60907;53.268;8.764;2022-12-18T00:13:13;28.50;;;10.25;;
72791;SDS011;60907;53.268;8.764;2022-12-18T00:15:39;30.80;;;12.77;;
72791;SDS011;60907;53.268;8.764;2022-12-18T00:18:05;29.67;;;10.80;;
72791;SDS011;60907;53.268;8.764;2022-12-18T00:20:30;22.20;;;10.50;;
72791;SDS011;60907;53.268;8.764;2022-12-18T00:22:56;32.05;;;11.50;;
72791;SDS011;60907;53.268;8.764;2022-12-18T00:25:22;26.45;;;12.10;;
72791;SDS011;60907;53.268;8.764;2022-12-18T00:27:47;27.85;;;10.52;;
72791;SDS011;60907;53.268;8.764;2022-12-18T00:30:13;30.17;;;12.18;;
72791;SDS011;60907;53.268;8.764;2022-12-18T00:32:38;26.55;;;11.52;;
72791;SDS011;60907;53.268;8.764;2022-12-18T00:35:04;28.92;;;12.25;;
72791;SDS011;60907;53.268;8.764;2022-12-18T00:37:30;26.20;;;11.43;;
72791;SDS011;60907;53.268;8.764;2022-12-18T00:39:56;29.17;;;12.23;;
72791;SDS011;60907;53.268;8.764;2022-12-18T00:42:21;29.17;;;12.65;;
72791;SDS011;60907;53.268;8.764;2022-12-18T00:45:05;31.35;;;11.10;;
72791;SDS011;60907;53.268;8.764;2022-12-18T00:47:31;29.48;;;11.45;;
72791;SDS011;60907;53.268;8.764;2022-12-18T00:49:56;31.60;;;11.77;;
72791;SDS011;60907;53.268;8.764;2022-12-18T00:52:21;37.17;;;12.90;;
72791;SDS011;60907;53.268;8.764;2022-12-18T00:54:47;36.97;;;10.83;;
72791;SDS011;60907;53.268;8.764;2022-12-18T00:57:12;30.33;;;8.75;;
72791;SDS011;60907;53.268;8.764;2022-12-18T00:59:38;28.90;;;11.97;;
72791;SDS011;60907;53.268;8.764;2022-12-18T01:02:03;23.53;;;11.93;;
72791;SDS011;60907;53.268;8.764;2022-12-18T01:04:31;31.40;;;10.75;;
72791;SDS011;60907;53.268;8.764;2022-12-18T01:06:57;25.58;;;9.30;;
72791;SDS011;60907;53.268;8.764;2022-12-18T01:09:22;26.40;;;10.30;;
72791;SDS011;60907;53.268;8.764;2022-12-18T01:11:48;29.73;;;11.35;;
72791;SDS011;60907;53.268;8.764;2022-12-18T01:14:13;25.38;;;12.13;;
72791;SDS011;60907;53.268;8.764;2022-12-18T01:16:38;25.50;;;10.63;;
72791;SDS011;60907;53.268;8.764;2022-12-18T01:19:04;26.35;;;10.80;;
72791;SDS011;60907;53.268;8.764;2022-12-18T01:21:29;32.80;;;11.15;;
72791;SDS011;60907;53.268;8.764;2022-12-18T01:23:55;26.23;;;11.10;;
72791;SDS011;60907;53.268;8.764;2022-12-18T01:26:21;30.85;;;11.40;;
72791;SDS011;60907;53.268;8.764;2022-12-18T01:28:47;27.85;;;12.50;;
72791;SDS011;60907;53.268;8.764;2022-12-18T01:31:33;26.95;;;10.57;;
72791;SDS011;60907;53.268;8.764;2022-12-18T01:34:02;28.33;;;11.73;;
72791;SDS011;60907;53.268;8.764;2022-12-18T01:36:29;24.38;;;12.13;;
72791;SDS011;60907;53.268;8.764;2022-12-18T01:38:59;22.25;;;11.20;;
72791;SDS011;60907;53.268;8.764;2022-12-18T01:41:27;27.27;;;11.05;;
72791;SDS011;60907;53.268;8.764;2022-12-18T01:47:20;27.88;;;12.20;;
72791;SDS011;60907;53.268;8.764;2022-12-18T01:49:48;27.77;;;11.32;;
72791;SDS011;60907;53.268;8.764;2022-12-18T01:52:14;20.35;;;8.90;;
72791;SDS011;60907;53.268;8.764;2022-12-18T01:54:39;27.08;;;10.20;;
72791;SDS011;60907;53.268;8.764;2022-12-18T01:57:05;23.88;;;9.70;;
72791;SDS011;60907;53.268;8.764;2022-12-18T01:59:31;25.65;;;10.02;;
72791;SDS011;60907;53.268;8.764;2022-12-18T02:01:57;27.40;;;11.35;;
72791;SDS011;60907;53.268;8.764;2022-12-18T02:04:25;26.60;;;12.75;;
72791;SDS011;60907;53.268;8.764;2022-12-18T02:06:55;25.67;;;10.98;;
72791;SDS011;60907;53.268;8.764;2022-12-18T02:09:31;24.48;;;11.55;;
72791;SDS011;60907;53.268;8.764;2022-12-18T02:17:36;24.50;;;10.43;;
72791;SDS011;60907;53.268;8.764;2022-12-18T02:25:13;21.45;;;10.02;;
72791;SDS011;60907;53.268;8.764;2022-12-18T02:27:41;23.75;;;10.43;;
72791;SDS011;60907;53.268;8.764;2022-12-18T02:30:09;24.80;;;10.32;;
72791;SDS011;60907;53.268;8.764;2022-12-18T02:32:39;24.73;;;10.60;;
72791;SDS011;60907;53.268;8.764;2022-12-18T02:35:11;22.75;;;10.75;;
72791;SDS011;60907;53.268;8.764;2022-12-18T02:37:40;20.48;;;10.15;;
72791;SDS011;60907;53.268;8.764;2022-12-18T02:40:07;20.33;;;10.57;;
72791;SDS011;60907;53.268;8.764;2022-12-18T02:42:33;20.45;;;9.05;;
72791;SDS011;60907;53.268;8.764;2022-12-18T02:44:59;20.80;;;9.38;;
72791;SDS011;60907;53.268;8.764;2022-12-18T02:47:26;25.95;;;9.52;;
72791;SDS011;60907;53.268;8.764;2022-12-18T02:54:52;26.00;;;11.60;;
72791;SDS011;60907;53.268;8.764;2022-12-18T02:57:32;23.25;;;10.10;;
72791;SDS011;60907;53.268;8.764;2022-12-18T03:00:13;18.77;;;9.25;;
72791;SDS011;60907;53.268;8.764;2022-12-18T03:05:15;23.40;;;9.73;;
72791;SDS011;60907;53.268;8.764;2022-12-18T03:07:46;15.75;;;8.40;;
72791;SDS011;60907;53.268;8.764;2022-12-18T03:10:16;20.58;;;8.90;;
72791;SDS011;60907;53.268;8.764;2022-12-18T03:12:47;19.17;;;9.50;;
72791;SDS011;60907;53.268;8.764;2022-12-18T03:15:23;23.48;;;9.85;;
72791;SDS011;60907;53.268;8.764;2022-12-18T03:17:55;20.52;;;8.07;;
72791;SDS011;60907;53.268;8.764;2022-12-18T03:20:24;19.50;;;8.52;;
72791;SDS011;60907;53.268;8.764;2022-12-18T03:22:52;22.08;;;9.52;;
72791;SDS011;60907;53.268;8.764;2022-12-18T03:25:20;18.17;;;8.52;;
72791;SDS011;60907;53.268;8.764;2022-12-18T03:27:47;19.42;;;9.05;;
72791;SDS011;60907;53.268;8.764;2022-12-18T03:30:15;19.38;;;9.15;;
72791;SDS011;60907;53.268;8.764;2022-12-18T03:32:52;24.48;;;9.50;;
72791;SDS011;60907;53.268;8.764;2022-12-18T03:35:22;22.13;;;9.45;;
72791;SDS011;60907;53.268;8.764;2022-12-18T03:37:51;22.50;;;8.85;;
72791;SDS011;60907;53.268;8.764;2022-12-18T03:40:17;25.65;;;8.95;;
72791;SDS011;60907;53.268;8.764;2022-12-18T03:42:56;24.95;;;10.18;;
72791;SDS011;60907;53.268;8.764;2022-12-18T03:53:14;18.60;;;8.20;;
72791;SDS011;60907;53.268;8.764;2022-12-18T03:55:46;18.70;;;9.27;;
72791;SDS011;60907;53.268;8.764;2022-12-18T03:58:13;19.63;;;9.85;;
72791;SDS011;60907;53.268;8.764;2022-12-18T04:03:06;15.60;;;7.80;;
72791;SDS011;60907;53.268;8.764;2022-12-18T04:05:33;13.27;;;8.02;;
72791;SDS011;60907;53.268;8.764;2022-12-18T04:07:59;16.60;;;7.40;;
72791;SDS011;60907;53.268;8.764;2022-12-18T04:10:26;15.85;;;8.15;;
72791;SDS011;60907;53.268;8.764;2022-12-18T04:12:51;17.58;;;8.32;;
72791;SDS011;60907;53.268;8.764;2022-12-18T04:15:20;19.60;;;8.35;;
72791;SDS011;60907;53.268;8.764;2022-12-18T04:17:49;16.50;;;8.02;;
72791;SDS011;60907;53.268;8.764;2022-12-18T04:20:15;18.23;;;7.57;;
72791;SDS011;60907;53.268;8.764;2022-12-18T04:22:41;17.00;;;8.15;;
72791;SDS011;60907;53.268;8.764;2022-12-18T04:25:07;17.73;;;8.43;;
72791;SDS011;60907;53.268;8.764;2022-12-18T04:27:36;21.27;;;7.03;;
72791;SDS011;60907;53.268;8.764;2022-12-18T04:30:01;18.05;;;8.80;;
72791;SDS011;60907;53.268;8.764;2022-12-18T04:32:27;16.08;;;8.38;;
72791;SDS011;60907;53.268;8.764;2022-12-18T04:34:52;16.25;;;7.38;;
72791;SDS011;60907;53.268;8.764;2022-12-18T04:37:18;15.70;;;8.20;;
72791;SDS011;60907;53.268;8.764;2022-12-18T04:39:43;16.13;;;7.37;;
72791;SDS011;60907;53.268;8.764;2022-12-18T04:42:09;14.82;;;7.07;;
72791;SDS011;60907;53.268;8.764;2022-12-18T04:44:34;16.80;;;6.22;;
72791;SDS011;60907;53.268;8.764;2022-12-18T04:46:59;17.85;;;7.88;;
72791;SDS011;60907;53.268;8.764;2022-12-18T04:49:25;16.90;;;8.13;;
72791;SDS011;60907;53.268;8.764;2022-12-18T04:51:50;17.98;;;7.78;;
72791;SDS011;60907;53.268;8.764;2022-12-18T04:54:16;17.25;;;7.97;;
72791;SDS011;60907;53.268;8.764;2022-12-18T04:56:44;16.17;;;7.50;;
72791;SDS011;60907;53.268;8.764;2022-12-18T04:59:10;15.40;;;8.02;;
72791;SDS011;60907;53.268;8.764;2022-12-18T05:01:35;14.15;;;6.93;;
72791;SDS011;60907;53.268;8.764;2022-12-18T05:04:01;14.15;;;6.78;;
72791;SDS011;60907;53.268;8.764;2022-12-18T05:06:27;12.80;;;6.45;;
72791;SDS011;60907;53.268;8.764;2022-12-18T05:08:53;15.98;;;7.32;;
72791;SDS011;60907;53.268;8.764;2022-12-18T05:11:18;15.35;;;7.57;;
72791;SDS011;60907;53.268;8.764;2022-12-18T05:13:44;14.70;;;8.18;;
72791;SDS011;60907;53.268;8.764;2022-12-18T05:16:10;11.27;;;6.32;;
72791;SDS011;60907;53.268;8.764;2022-12-18T05:18:35;12.23;;;7.35;;
72791;SDS011;60907;53.268;8.764;2022-12-18T05:21:01;12.07;;;6.43;;
72791;SDS011;60907;53.268;8.764;2022-12-18T05:23:26;16.13;;;6.22;;
72791;SDS011;60907;53.268;8.764;2022-12-18T05:28:25;13.43;;;6.63;;
72791;SDS011;60907;53.268;8.764;2022-12-18T05:30:52;16.42;;;7.53;;
72791;SDS011;60907;53.268;8.764;2022-12-18T05:33:20;12.90;;;6.40;;
72791;SDS011;60907;53.268;8.764;2022-12-18T05:35:50;15.50;;;7.35;;
72791;SDS011;60907;53.268;8.764;2022-12-18T05:38:20;15.32;;;5.63;;
72791;SDS011;60907;53.268;8.764;2022-12-18T05:40:47;13.70;;;6.85;;
72791;SDS011;60907;53.268;8.764;2022-12-18T05:43:13;13.85;;;7.03;;
72791;SDS011;60907;53.268;8.764;2022-12-18T05:45:38;10.32;;;6.13;;
72791;SDS011;60907;53.268;8.764;2022-12-18T05:48:04;11.27;;;5.93;;
72791;SDS011;60907;53.268;8.764;2022-12-18T05:50:41;13.95;;;6.07;;
72791;SDS011;60907;53.268;8.764;2022-12-18T05:53:10;15.15;;;5.97;;
72791;SDS011;60907;53.268;8.764;2022-12-18T05:55:36;18.85;;;6.78;;
72791;SDS011;60907;53.268;8.764;2022-12-18T05:58:03;14.10;;;6.35;;
72791;SDS011;60907;53.268;8.764;2022-12-18T06:00:29;11.50;;;5.50;;
72791;SDS011;60907;53.268;8.764;2022-12-18T06:02:54;13.25;;;6.18;;
72791;SDS011;60907;53.268;8.764;2022-12-18T06:05:20;19.30;;;7.97;;
72791;SDS011;60907;53.268;8.764;2022-12-18T06:07:45;13.65;;;6.10;;
72791;SDS011;60907;53.268;8.764;2022-12-18T06:10:10;17.88;;;6.93;;
72791;SDS011;60907;53.268;8.764;2022-12-18T06:12:36;15.10;;;7.30;;
72791;SDS011;60907;53.268;8.764;2022-12-18T06:15:02;18.02;;;6.28;;
72791;SDS011;60907;53.268;8.764;2022-12-18T06:17:29;11.43;;;5.80;;
72791;SDS011;60907;53.268;8.764;2022-12-18T06:19:55;10.48;;;5.75;;
72791;SDS011;60907;53.268;8.764;2022-12-18T06:22:20;13.48;;;5.43;;
72791;SDS011;60907;53.268;8.764;2022-12-18T06:24:46;12.43;;;5.97;;
72791;SDS011;60907;53.268;8.764;2022-12-18T06:27:11;10.90;;;5.15;;
72791;SDS011;60907;53.268;8.764;2022-12-18T06:29:36;14.35;;;5.78;;
72791;SDS011;60907;53.268;8.764;2022-12-18T06:32:02;10.25;;;4.53;;
72791;SDS011;60907;53.268;8.764;2022-12-18T06:34:27;12.02;;;5.70;;
72791;SDS011;60907;53.268;8.764;2022-12-18T06:36:56;10.88;;;5.22;;
72791;SDS011;60907;53.268;8.764;2022-12-18T06:39:21;8.40;;;4.55;;
72791;SDS011;60907;53.268;8.764;2022-12-18T06:41:47;11.38;;;5.57;;
72791;SDS011;60907;53.268;8.764;2022-12-18T06:44:12;8.93;;;4.70;;
72791;SDS011;60907;53.268;8.764;2022-12-18T06:46:37;15.48;;;5.20;;
72791;SDS011;60907;53.268;8.764;2022-12-18T06:49:03;9.87;;;4.67;;
72791;SDS011;60907;53.268;8.764;2022-12-18T06:51:28;11.60;;;5.60;;
72791;SDS011;60907;53.268;8.764;2022-12-18T06:53:54;8.10;;;4.30;;
72791;SDS011;60907;53.268;8.764;2022-12-18T06:56:19;10.07;;;5.38;;
72791;SDS011;60907;53.268;8.764;2022-12-18T06:58:45;7.38;;;4.25;;
72791;SDS011;60907;53.268;8.764;2022-12-18T07:01:10;9.88;;;5.50;;
72791;SDS011;60907;53.268;8.764;2022-12-18T07:03:37;12.23;;;5.78;;
72791;SDS011;60907;53.268;8.764;2022-12-18T07:06:06;13.55;;;6.07;;
72791;SDS011;60907;53.268;8.764;2022-12-18T07:08:31;9.95;;;5.10;;
72791;SDS011;60907;53.268;8.764;2022-12-18T07:10:57;10.48;;;5.28;;
72791;SDS011;60907;53.268;8.764;2022-12-18T07:13:23;9.52;;;4.90;;
72791;SDS011;60907;53.268;8.764;2022-12-18T07:15:48;10.50;;;4.60;;
72791;SDS011;60907;53.268;8.764;2022-12-18T07:18:14;9.27;;;4.43;;
72791;SDS011;60907;53.268;8.764;2022-12-18T07:20:39;12.80;;;5.68;;
72791;SDS011;60907;53.268;8.764;2022-12-18T07:23:05;9.88;;;4.68;;
72791;SDS011;60907;53.268;8.764;2022-12-18T07:25:37;9.45;;;4.55;;
72791;SDS011;60907;53.268;8.764;2022-12-18T07:28:02;9.30;;;4.57;;
72791;SDS011;60907;53.268;8.764;2022-12-18T07:30:28;10.50;;;5.65;;
72791;SDS011;60907;53.268;8.764;2022-12-18T07:32:54;11.52;;;4.85;;
72791;SDS011;60907;53.268;8.764;2022-12-18T07:35:19;9.60;;;5.03;;
72791;SDS011;60907;53.268;8.764;2022-12-18T07:37:45;11.85;;;5.53;;
72791;SDS011;60907;53.268;8.764;2022-12-18T07:40:10;10.30;;;5.63;;
72791;SDS011;60907;53.268;8.764;2022-12-18T07:42:36;12.43;;;5.43;;
72791;SDS011;60907;53.268;8.764;2022-12-18T07:45:02;9.75;;;4.55;;
72791;SDS011;60907;53.268;8.764;2022-12-18T07:47:28;9.50;;;4.63;;
72791;SDS011;60907;53.268;8.764;2022-12-18T07:49:56;11.60;;;4.78;;
72791;SDS011;60907;53.268;8.764;2022-12-18T07:52:22;14.53;;;6.03;;
72791;SDS011;60907;53.268;8.764;2022-12-18T07:54:47;11.45;;;5.28;;
72791;SDS011;60907;53.268;8.764;2022-12-18T07:57:16;14.65;;;5.25;;
72791;SDS011;60907;53.268;8.764;2022-12-18T07:59:42;9.10;;;5.15;;
72791;SDS011;60907;53.268;8.764;2022-12-18T08:02:07;9.70;;;4.82;;
72791;SDS011;60907;53.268;8.764;2022-12-18T08:04:33;10.00;;;4.78;;
72791;SDS011;60907;53.268;8.764;2022-12-18T08:07:01;12.93;;;5.20;;
72791;SDS011;60907;53.268;8.764;2022-12-18T08:09:26;13.27;;;5.53;;
72791;SDS011;60907;53.268;8.764;2022-12-18T08:11:52;9.17;;;4.10;;
72791;SDS011;60907;53.268;8.764;2022-12-18T08:14:17;11.32;;;5.00;;
72791;SDS011;60907;53.268;8.764;2022-12-18T08:16:43;10.27;;;4.90;;
72791;SDS011;60907;53.268;8.764;2022-12-18T08:19:08;11.23;;;5.87;;
72791;SDS011;60907;53.268;8.764;2022-12-18T08:21:36;9.68;;;4.60;;
72791;SDS011;60907;53.268;8.764;2022-12-18T08:24:02;11.25;;;5.65;;
72791;SDS011;60907;53.268;8.764;2022-12-18T08:26:29;12.65;;;5.82;;
72791;SDS011;60907;53.268;8.764;2022-12-18T08:28:55;13.38;;;5.55;;
72791;SDS011;60907;53.268;8.764;2022-12-18T08:31:22;9.52;;;4.68;;
72791;SDS011;60907;53.268;8.764;2022-12-18T08:33:48;9.50;;;4.47;;
72791;SDS011;60907;53.268;8.764;2022-12-18T08:36:15;12.18;;;5.65;;
72791;SDS011;60907;53.268;8.764;2022-12-18T08:38:40;11.88;;;6.18;;
72791;SDS011;60907;53.268;8.764;2022-12-18T08:41:06;12.00;;;6.13;;
72791;SDS011;60907;53.268;8.764;2022-12-18T08:43:33;9.75;;;5.00;;
72791;SDS011;60907;53.268;8.764;2022-12-18T08:46:20;8.93;;;5.03;;
72791;SDS011;60907;53.268;8.764;2022-12-18T08:48:47;13.02;;;6.50;;
72791;SDS011;60907;53.268;8.764;2022-12-18T08:51:13;12.70;;;4.85;;
72791;SDS011;60907;53.268;8.764;2022-12-18T08:53:38;12.52;;;5.35;;
72791;SDS011;60907;53.268;8.764;2022-12-18T08:56:04;10.13;;;4.85;;
72791;SDS011;60907;53.268;8.764;2022-12-18T08:58:29;10.55;;;4.38;;
72791;SDS011;60907;53.268;8.764;2022-12-18T09:01:04;13.23;;;6.05;;
72791;SDS011;60907;53.268;8.764;2022-12-18T09:03:31;13.82;;;5.05;;
72791;SDS011;60907;53.268;8.764;2022-12-18T09:05:58;9.52;;;4.80;;
72791;SDS011;60907;53.268;8.764;2022-12-18T09:08:24;10.93;;;4.68;;
72791;SDS011;60907;53.268;8.764;2022-12-18T09:10:50;9.57;;;5.43;;
72791;SDS011;60907;53.268;8.764;2022-12-18T09:13:16;11.20;;;5.53;;
72791;SDS011;60907;53.268;8.764;2022-12-18T09:15:42;17.42;;;7.43;;
72791;SDS011;60907;53.268;8.764;2022-12-18T09:18:13;13.65;;;7.43;;
72791;SDS011;60907;53.268;8.764;2022-12-18T09:20:39;13.57;;;5.80;;
72791;SDS011;60907;53.268;8.764;2022-12-18T09:23:05;9.38;;;5.45;;
72791;SDS011;60907;53.268;8.764;2022-12-18T09:25:31;11.10;;;5.07;;
72791;SDS011;60907;53.268;8.764;2022-12-18T09:27:58;27.05;;;11.02;;
72791;SDS011;60907;53.268;8.764;2022-12-18T09:30:24;12.15;;;5.72;;
72791;SDS011;60907;53.268;8.764;2022-12-18T09:32:49;11.80;;;5.78;;
72791;SDS011;60907;53.268;8.764;2022-12-18T09:35:15;12.10;;;5.40;;
72791;SDS011;60907;53.268;8.764;2022-12-18T09:37:40;12.40;;;7.03;;
72791;SDS011;60907;53.268;8.764;2022-12-18T09:40:12;17.58;;;7.55;;
72791;SDS011;60907;53.268;8.764;2022-12-18T09:42:39;15.88;;;6.65;;
72791;SDS011;60907;53.268;8.764;2022-12-18T09:45:04;13.45;;;6.70;;
72791;SDS011;60907;53.268;8.764;2022-12-18T09:47:30;16.80;;;7.75;;
72791;SDS011;60907;53.268;8.764;2022-12-18T09:50:14;17.48;;;8.15;;
72791;SDS011;60907;53.268;8.764;2022-12-18T09:52:59;11.57;;;6.30;;
72791;SDS011;60907;53.268;8.764;2022-12-18T10:00:50;12.75;;;5.95;;
72791;SDS011;60907;53.268;8.764;2022-12-18T10:03:16;11.88;;;6.43;;
72791;SDS011;60907;53.268;8.764;2022-12-18T10:17:35;14.55;;;6.45;;
72791;SDS011;60907;53.268;8.764;2022-12-18T10:20:09;13.35;;;6.13;;
72791;SDS011;60907;53.268;8.764;2022-12-18T10:28:23;12.13;;;5.40;;
72791;SDS011;60907;53.268;8.764;2022-12-18T10:30:49;12.45;;;6.28;;
72791;SDS011;60907;53.268;8.764;2022-12-18T10:33:18;18.52;;;8.98;;
72791;SDS011;60907;53.268;8.764;2022-12-18T10:35:45;24.05;;;11.93;;
72791;SDS011;60907;53.268;8.764;2022-12-18T10:41:00;8.60;;;6.43;;
72791;SDS011;60907;53.268;8.764;2022-12-18T10:43:27;12.20;;;7.30;;
72791;SDS011;60907;53.268;8.764;2022-12-18T10:46:19;11.30;;;5.88;;
72791;SDS011;60907;53.268;8.764;2022-12-18T10:48:53;10.60;;;5.10;;
72791;SDS011;60907;53.268;8.764;2022-12-18T10:51:20;10.25;;;5.63;;
72791;SDS011;60907;53.268;8.764;2022-12-18T10:56:18;13.02;;;5.32;;
72791;SDS011;60907;53.268;8.764;2022-12-18T10:58:45;12.40;;;5.60;;
72791;SDS011;60907;53.268;8.764;2022-12-18T11:01:21;11.82;;;5.75;;
72791;SDS011;60907;53.268;8.764;2022-12-18T11:06:15;10.15;;;5.55;;
72791;SDS011;60907;53.268;8.764;2022-12-18T11:08:43;10.70;;;5.63;;
72791;SDS011;60907;53.268;8.764;2022-12-18T11:11:23;17.33;;;5.88;;
72791;SDS011;60907;53.268;8.764;2022-12-18T11:16:24;13.70;;;7.20;;
72791;SDS011;60907;53.268;8.764;2022-12-18T11:18:50;15.52;;;6.15;;
72791;SDS011;60907;53.268;8.764;2022-12-18T11:21:16;15.38;;;5.65;;
72791;SDS011;60907;53.268;8.764;2022-12-18T11:23:59;16.33;;;5.65;;
72791;SDS011;60907;53.268;8.764;2022-12-18T11:26:33;13.75;;;6.47;;
72791;SDS011;60907;53.268;8.764;2022-12-18T11:29:09;13.10;;;5.72;;
72791;SDS011;60907;53.268;8.764;2022-12-18T11:31:37;10.73;;;5.72;;
72791;SDS011;60907;53.268;8.764;2022-12-18T11:36:47;11.25;;;5.78;;
72791;SDS011;60907;53.268;8.764;2022-12-18T11:41:55;9.82;;;5.85;;
72791;SDS011;60907;53.268;8.764;2022-12-18T11:44:38;10.40;;;5.15;;
72791;SDS011;60907;53.268;8.764;2022-12-18T11:47:13;11.75;;;5.07;;
72791;SDS011;60907;53.268;8.764;2022-12-18T11:49:44;10.18;;;5.65;;
72791;SDS011;60907;53.268;8.764;2022-12-18T11:55:12;10.73;;;4.90;;
72791;SDS011;60907;53.268;8.764;2022-12-18T12:00:36;9.18;;;4.53;;
72791;SDS011;60907;53.268;8.764;2022-12-18T12:08:50;11.80;;;5.47;;
72791;SDS011;60907;53.268;8.764;2022-12-18T12:11:50;9.85;;;5.35;;
72791;SDS011;60907;53.268;8.764;2022-12-18T12:16:58;10.00;;;5.72;;
72791;SDS011;60907;53.268;8.764;2022-12-18T12:36:25;9.18;;;4.80;;
72791;SDS011;60907;53.268;8.764;2022-12-18T12:38:51;13.10;;;4.95;;
72791;SDS011;60907;53.268;8.764;2022-12-18T12:41:21;11.40;;;5.57;;
72791;SDS011;60907;53.268;8.764;2022-12-18T12:44:08;10.07;;;5.18;;
72791;SDS011;60907;53.268;8.764;2022-12-18T12:46:38;9.73;;;5.32;;
72791;SDS011;60907;53.268;8.764;2022-12-18T12:49:09;10.52;;;5.00;;
72791;SDS011;60907;53.268;8.764;2022-12-18T12:51:38;9.45;;;4.93;;
72791;SDS011;60907;53.268;8.764;2022-12-18T12:54:09;9.27;;;4.22;;
72791;SDS011;60907;53.268;8.764;2022-12-18T13:01:40;8.68;;;3.78;;
72791;SDS011;60907;53.268;8.764;2022-12-18T13:04:31;13.13;;;5.03;;
72791;SDS011;60907;53.268;8.764;2022-12-18T13:07:04;10.27;;;6.85;;
72791;SDS011;60907;53.268;8.764;2022-12-18T13:09:36;13.65;;;7.32;;
72791;SDS011;60907;53.268;8.764;2022-12-18T13:12:51;10.20;;;4.65;;
72791;SDS011;60907;53.268;8.764;2022-12-18T13:15:24;13.45;;;4.95;;
72791;SDS011;60907;53.268;8.764;2022-12-18T13:20:34;10.07;;;4.97;;
72791;SDS011;60907;53.268;8.764;2022-12-18T13:31:06;11.20;;;4.53;;
72791;SDS011;60907;53.268;8.764;2022-12-18T13:33:42;7.57;;;4.40;;
72791;SDS011;60907;53.268;8.764;2022-12-18T13:36:28;7.70;;;4.40;;
72791;SDS011;60907;53.268;8.764;2022-12-18T13:41:39;12.27;;;4.72;;
72791;SDS011;60907;53.268;8.764;2022-12-18T13:46:57;9.48;;;4.28;;
72791;SDS011;60907;53.268;8.764;2022-12-18T13:49:24;8.00;;;5.07;;
72791;SDS011;60907;53.268;8.764;2022-12-18T13:51:53;11.95;;;4.70;;
72791;SDS011;60907;53.268;8.764;2022-12-18T13:54:35;9.63;;;4.68;;
72791;SDS011;60907;53.268;8.764;2022-12-18T13:57:03;9.80;;;5.00;;
72791;SDS011;60907;53.268;8.764;2022-12-18T13:59:36;8.15;;;4.28;;
72791;SDS011;60907;53.268;8.764;2022-12-18T14:02:16;13.88;;;5.63;;
72791;SDS011;60907;53.268;8.764;2022-12-18T14:04:44;9.55;;;4.78;;
72791;SDS011;60907;53.268;8.764;2022-12-18T14:07:11;9.63;;;5.18;;
72791;SDS011;60907;53.268;8.764;2022-12-18T14:09:43;11.55;;;4.68;;
72791;SDS011;60907;53.268;8.764;2022-12-18T14:12:30;10.05;;;4.90;;
72791;SDS011;60907;53.268;8.764;2022-12-18T14:18:15;12.15;;;5.03;;
72791;SDS011;60907;53.268;8.764;2022-12-18T14:20:45;10.30;;;5.70;;
72791;SDS011;60907;53.268;8.764;2022-12-18T14:23:25;7.43;;;4.22;;
72791;SDS011;60907;53.268;8.764;2022-12-18T14:25:57;9.32;;;4.53;;
72791;SDS011;60907;53.268;8.764;2022-12-18T14:28:23;8.75;;;4.40;;
72791;SDS011;60907;53.268;8.764;2022-12-18T14:30:48;7.70;;;4.60;;
72791;SDS011;60907;53.268;8.764;2022-12-18T14:33:15;8.88;;;4.43;;
72791;SDS011;60907;53.268;8.764;2022-12-18T14:35:52;9.50;;;3.88;;
72791;SDS011;60907;53.268;8.764;2022-12-18T14:43:27;8.63;;;4.00;;
72791;SDS011;60907;53.268;8.764;2022-12-18T14:45:54;7.40;;;4.40;;
72791;SDS011;60907;53.268;8.764;2022-12-18T14:53:48;6.28;;;4.00;;
72791;SDS011;60907;53.268;8.764;2022-12-18T14:56:28;9.73;;;4.43;;
72791;SDS011;60907;53.268;8.764;2022-12-18T14:59:32;8.88;;;4.38;;
72791;SDS011;60907;53.268;8.764;2022-12-18T15:02:04;8.25;;;3.88;;
72791;SDS011;60907;53.268;8.764;2022-12-18T15:04:39;11.30;;;4.30;;
72791;SDS011;60907;53.268;8.764;2022-12-18T15:12:36;12.25;;;3.28;;
72791;SDS011;60907;53.268;8.764;2022-12-18T15:15:03;7.20;;;3.20;;
72791;SDS011;60907;53.268;8.764;2022-12-18T15:17:29;9.18;;;4.40;;
72791;SDS011;60907;53.268;8.764;2022-12-18T15:20:01;7.55;;;3.10;;
72791;SDS011;60907;53.268;8.764;2022-12-18T15:22:35;8.63;;;3.78;;
72791;SDS011;60907;53.268;8.764;2022-12-18T15:25:02;6.88;;;3.10;;
72791;SDS011;60907;53.268;8.764;2022-12-18T15:27:30;9.93;;;3.70;;
72791;SDS011;60907;53.268;8.764;2022-12-18T15:30:00;5.05;;;3.42;;
72791;SDS011;60907;53.268;8.764;2022-12-18T15:32:32;8.35;;;3.80;;
72791;SDS011;60907;53.268;8.764;2022-12-18T15:35:02;4.85;;;2.92;;
72791;SDS011;60907;53.268;8.764;2022-12-18T15:37:34;9.27;;;3.92;;
72791;SDS011;60907;53.268;8.764;2022-12-18T15:39:59;5.50;;;2.88;;
72791;SDS011;60907;53.268;8.764;2022-12-18T15:42:25;5.37;;;3.27;;
72791;SDS011;60907;53.268;8.764;2022-12-18T15:45:12;6.80;;;3.50;;
72791;SDS011;60907;53.268;8.764;2022-12-18T15:47:38;5.38;;;2.78;;
72791;SDS011;60907;53.268;8.764;2022-12-18T15:50:04;9.13;;;3.53;;
72791;SDS011;60907;53.268;8.764;2022-12-18T15:52:30;7.93;;;3.47;;
72791;SDS011;60907;53.268;8.764;2022-12-18T15:54:57;7.80;;;3.40;;
72791;SDS011;60907;53.268;8.764;2022-12-18T15:57:41;6.65;;;2.85;;
72791;SDS011;60907;53.268;8.764;2022-12-18T16:00:11;6.87;;;3.60;;
72791;SDS011;60907;53.268;8.764;2022-12-18T16:02:37;8.18;;;3.40;;
72791;SDS011;60907;53.268;8.764;2022-12-18T16:05:02;8.57;;;3.70;;
72791;SDS011;60907;53.268;8.764;2022-12-18T16:07:28;6.43;;;3.20;;
72791;SDS011;60907;53.268;8.764;2022-12-18T16:09:53;8.55;;;3.85;;
72791;SDS011;60907;53.268;8.764;2022-12-18T16:12:21;6.95;;;3.00;;
72791;SDS011;60907;53.268;8.764;2022-12-18T16:17:13;5.87;;;2.90;;
72791;SDS011;60907;53.268;8.764;2022-12-18T16:19:38;6.68;;;3.33;;
72791;SDS011;60907;53.268;8.764;2022-12-18T16:22:04;7.00;;;2.92;;
72791;SDS011;60907;53.268;8.764;2022-12-18T16:24:31;9.25;;;4.13;;
72791;SDS011;60907;53.268;8.764;2022-12-18T16:26:58;6.65;;;3.05;;
72791;SDS011;60907;53.268;8.764;2022-12-18T16:29:25;5.05;;;2.80;;
72791;SDS011;60907;53.268;8.764;2022-12-18T16:31:52;7.65;;;3.17;;
72791;SDS011;60907;53.268;8.764;2022-12-18T16:34:26;7.68;;;3.70;;
72791;SDS011;60907;53.268;8.764;2022-12-18T16:36:56;6.40;;;2.92;;
72791;SDS011;60907;53.268;8.764;2022-12-18T16:39:23;5.68;;;3.00;;
72791;SDS011;60907;53.268;8.764;2022-12-18T16:41:49;5.95;;;3.08;;
72791;SDS011;60907;53.268;8.764;2022-12-18T16:44:14;5.82;;;3.10;;
72791;SDS011;60907;53.268;8.764;2022-12-18T16:46:40;6.38;;;2.85;;
72791;SDS011;60907;53.268;8.764;2022-12-18T16:49:10;5.00;;;2.50;;
72791;SDS011;60907;53.268;8.764;2022-12-18T16:51:37;10.40;;;4.85;;
72791;SDS011;60907;53.268;8.764;2022-12-18T16:54:02;5.63;;;3.30;;
72791;SDS011;60907;53.268;8.764;2022-12-18T16:56:28;4.78;;;2.80;;
72791;SDS011;60907;53.268;8.764;2022-12-18T16:58:54;5.25;;;2.83;;
72791;SDS011;60907;53.268;8.764;2022-12-18T17:01:21;6.38;;;2.83;;
72791;SDS011;60907;53.268;8.764;2022-12-18T17:03:51;8.45;;;3.10;;
72791;SDS011;60907;53.268;8.764;2022-12-18T17:06:20;3.63;;;2.55;;
72791;SDS011;60907;53.268;8.764;2022-12-18T17:08:47;5.35;;;2.78;;
72791;SDS011;60907;53.268;8.764;2022-12-18T17:11:13;5.10;;;2.80;;